Time;durP1;ratioP1;P1;durP2;ratioP2;P2;SDS_P1;SDS_P2;PMS_P1;PMS_P2;Temp;Humidity;BMP_temperature;BMP_pressure;BME280_temperature;BME280_humidity;BME280_pressure;Samples;Min_cycle;Max_cycle;Signal;HPM_P1;HPM_P2
2022/04/27 00:00:37;;;;;;;7.68;4.35;;;22.70;56.50;;;;;;5056144;28;20478;-72
2022/04/27 00:03:05;;;;;;;5.68;4.30;;;22.80;56.30;;;;;;5056252;28;20038;-72
2022/04/27 00:05:32;;;;;;;5.95;4.55;;;22.70;56.40;;;;;;5055436;28;20048;-72
2022/04/27 00:07:59;;;;;;;6.82;5.18;;;22.70;56.50;;;;;;5056210;28;20044;-72
2022/04/27 00:10:25;;;;;;;5.43;3.85;;;22.80;56.50;;;;;;5056299;28;20041;-72
2022/04/27 00:12:51;;;;;;;8.15;4.18;;;22.60;56.50;;;;;;5056069;28;20049;-72
2022/04/27 00:15:20;;;;;;;6.32;4.38;;;22.70;56.60;;;;;;5056055;28;20041;-72
2022/04/27 00:17:47;;;;;;;5.45;4.10;;;22.60;56.50;;;;;;5056262;28;20049;-72
2022/04/27 00:20:13;;;;;;;5.78;4.22;;;22.70;56.60;;;;;;5071917;28;20080;-72
2022/04/27 00:22:39;;;;;;;5.72;4.22;;;22.50;56.50;;;;;;5073426;28;20100;-72
2022/04/27 00:25:06;;;;;;;7.13;4.63;;;22.60;56.50;;;;;;5075899;28;20041;-72
2022/04/27 00:27:32;;;;;;;5.38;3.72;;;22.50;56.50;;;;;;5059690;28;20072;-72
2022/04/27 00:30:00;;;;;;;5.13;4.32;;;22.60;56.60;;;;;;5075870;28;20052;-72
2022/04/27 00:32:26;;;;;;;8.48;4.28;;;22.60;56.70;;;;;;5075782;28;20096;-71
2022/04/27 00:34:52;;;;;;;4.57;3.67;;;22.50;56.60;;;;;;5059753;28;20064;-72
2022/04/27 00:37:18;;;;;;;4.28;3.70;;;22.50;56.50;;;;;;5059638;28;20038;-72
2022/04/27 00:39:45;;;;;;;8.77;3.85;;;22.50;56.50;;;;;;5059454;28;20034;-72
2022/04/27 00:42:22;;;;;;;5.28;4.63;;;22.50;56.50;;;;;;5059463;28;20037;-72
2022/04/27 00:44:50;;;;;;;4.95;4.40;;;22.50;56.60;;;;;;5059631;28;20102;-72
2022/04/27 00:47:18;;;;;;;4.40;3.97;;;22.50;56.60;;;;;;5059639;28;20049;-72
2022/04/27 00:49:54;;;;;;;4.22;3.83;;;22.40;56.50;;;;;;5075354;28;20049;-72
2022/04/27 00:52:22;;;;;;;5.40;4.47;;;22.50;56.50;;;;;;5075319;28;20044;-72
2022/04/27 00:54:53;;;;;;;5.90;4.82;;;22.60;56.50;;;;;;5058790;28;20068;-72
2022/04/27 00:57:20;;;;;;;5.88;4.60;;;22.50;56.50;;;;;;5059304;28;20045;-72
2022/04/27 00:59:47;;;;;;;7.10;4.53;;;22.60;56.50;;;;;;5059342;28;20056;-72
2022/04/27 01:02:13;;;;;;;5.20;4.47;;;22.50;56.50;;;;;;5075097;28;20053;-72
2022/04/27 01:04:40;;;;;;;5.70;4.50;;;22.50;56.50;;;;;;5059082;28;20034;-72
2022/04/27 01:07:06;;;;;;;5.88;4.57;;;22.60;56.50;;;;;;5058428;28;20033;-72
2022/04/27 01:09:33;;;;;;;7.03;4.22;;;22.60;56.50;;;;;;5058470;28;20037;-72
2022/04/27 01:12:01;;;;;;;4.90;4.40;;;22.60;56.40;;;;;;5074828;28;20033;-72
2022/04/27 01:14:28;;;;;;;7.07;4.72;;;22.50;56.40;;;;;;5074967;28;20057;-72
2022/04/27 01:16:57;;;;;;;4.72;4.03;;;22.50;56.30;;;;;;5075142;28;20048;-72
2022/04/27 01:19:26;;;;;;;5.55;4.82;;;22.60;56.40;;;;;;5074819;28;20041;-72
2022/04/27 01:21:55;;;;;;;5.63;4.60;;;22.50;56.40;;;;;;5057882;28;20029;-72
2022/04/27 01:24:26;;;;;;;4.95;4.35;;;22.40;56.30;;;;;;5074791;28;20399;-72
2022/04/27 01:26:53;;;;;;;8.13;4.78;;;22.40;56.30;;;;;;5074931;28;20041;-72
2022/04/27 01:29:24;;;;;;;6.07;4.55;;;22.50;56.50;;;;;;5074590;28;20037;-72
2022/04/27 01:31:51;;;;;;;5.75;4.38;;;22.50;56.50;;;;;;5058289;28;20041;-72
2022/04/27 01:34:20;;;;;;;4.78;4.15;;;22.40;56.50;;;;;;5058218;28;20041;-72
2022/04/27 01:36:47;;;;;;;10.93;4.35;;;22.40;56.40;;;;;;5074728;28;20048;-72
2022/04/27 01:39:13;;;;;;;5.18;4.38;;;22.30;56.50;;;;;;5073953;28;20038;-72
2022/04/27 01:41:39;;;;;;;5.43;4.43;;;22.30;56.50;;;;;;5070747;28;20051;-72
2022/04/27 01:44:06;;;;;;;6.78;5.38;;;22.30;56.60;;;;;;5078490;28;20051;-72
2022/04/27 01:46:32;;;;;;;5.32;4.32;;;22.40;56.60;;;;;;5078159;28;20044;-72
2022/04/27 01:48:58;;;;;;;5.20;4.70;;;22.30;56.60;;;;;;5078511;28;20037;-72
2022/04/27 01:54:16;;;;;;;7.15;4.85;;;22.30;56.60;;;;;;5077358;28;20029;-72
2022/04/27 01:56:49;;;;;;;6.28;4.82;;;22.30;56.60;;;;;;5077636;28;20041;-72
2022/04/27 01:59:16;;;;;;;4.45;4.05;;;22.30;56.50;;;;;;5078331;28;20048;-72
2022/04/27 02:01:42;;;;;;;5.65;4.75;;;22.10;56.50;;;;;;5077113;28;20051;-72
2022/04/27 02:04:09;;;;;;;7.43;4.15;;;22.20;56.50;;;;;;5078001;28;20071;-72
2022/04/27 02:06:36;;;;;;;5.57;4.20;;;22.10;56.60;;;;;;5077134;28;20044;-72
2022/04/27 02:09:08;;;;;;;4.40;3.92;;;22.10;56.60;;;;;;5077267;28;20051;-72
2022/04/27 02:11:53;;;;;;;5.00;4.50;;;22.20;56.50;;;;;;5077266;28;20037;-72
2022/04/27 02:14:19;;;;;;;4.95;4.45;;;22.30;56.60;;;;;;5077013;28;20037;-72
2022/04/27 02:16:46;;;;;;;5.57;4.40;;;22.20;56.40;;;;;;5077143;28;20039;-72
2022/04/27 02:19:15;;;;;;;6.15;4.68;;;22.30;56.40;;;;;;5077123;28;20037;-72
2022/04/27 02:21:44;;;;;;;6.97;5.05;;;22.20;56.30;;;;;;5076906;28;20047;-72
2022/04/27 02:24:12;;;;;;;9.23;5.18;;;22.20;56.30;;;;;;5076857;28;20075;-71
2022/04/27 02:26:41;;;;;;;5.80;4.85;;;22.30;56.30;;;;;;5077807;28;20036;-71
2022/04/27 02:29:08;;;;;;;5.38;3.95;;;22.40;56.30;;;;;;5076813;28;20041;-72
2022/04/27 02:31:35;;;;;;;5.75;3.88;;;22.40;56.30;;;;;;5076875;28;20036;-72
2022/04/27 02:34:02;;;;;;;5.97;4.40;;;22.40;56.20;;;;;;5076809;28;20055;-72
2022/04/27 02:36:29;;;;;;;7.25;4.95;;;22.40;56.20;;;;;;5076726;28;20071;-72
2022/04/27 02:38:55;;;;;;;6.25;5.13;;;22.40;56.10;;;;;;5076964;28;20041;-72
2022/04/27 02:41:22;;;;;;;7.80;5.07;;;22.50;56.20;;;;;;5076702;28;20055;-71
2022/04/27 02:43:49;;;;;;;7.20;4.07;;;22.50;56.30;;;;;;5077185;28;20041;-72
2022/04/27 02:46:18;;;;;;;4.75;4.25;;;22.50;56.30;;;;;;5075953;28;20039;-72
2022/04/27 02:51:51;;;;;;;6.63;5.35;;;22.50;56.20;;;;;;5076442;28;20041;-72
2022/04/27 02:54:24;;;;;;;5.47;4.72;;;22.60;56.20;;;;;;5076358;28;20037;-72
2022/04/27 02:56:58;;;;;;;5.72;5.00;;;22.50;56.20;;;;;;5076337;28;20447;-72
2022/04/27 02:59:24;;;;;;;8.75;4.80;;;22.50;56.10;;;;;;5076388;28;20048;-71
2022/04/27 03:01:52;;;;;;;6.97;4.40;;;22.50;56.10;;;;;;5076380;28;20041;-72
2022/04/27 03:04:19;;;;;;;5.88;4.80;;;22.50;56.10;;;;;;5075963;28;20040;-72
2022/04/27 03:06:46;;;;;;;6.75;5.43;;;22.60;56.10;;;;;;5076345;28;20060;-71
2022/04/27 03:09:12;;;;;;;5.85;4.97;;;22.50;56.00;;;;;;5076322;28;20044;-72
2022/04/27 03:11:38;;;;;;;9.88;5.03;;;22.60;56.00;;;;;;5075947;28;20075;-71
2022/04/27 03:14:16;;;;;;;6.68;5.07;;;22.50;56.00;;;;;;5075782;28;20040;-72
2022/04/27 03:16:42;;;;;;;7.55;5.30;;;22.60;55.90;;;;;;5076046;28;20041;-72
2022/04/27 03:19:08;;;;;;;14.40;5.53;;;22.60;55.90;;;;;;5059417;28;20063;-72
2022/04/27 03:21:34;;;;;;;8.13;5.25;;;22.60;55.90;;;;;;5076034;28;20045;-71
2022/04/27 03:24:00;;;;;;;6.25;5.10;;;22.50;56.00;;;;;;5075593;28;20037;-72
2022/04/27 03:26:26;;;;;;;7.53;5.13;;;22.60;55.90;;;;;;5076816;28;20064;-71
2022/04/27 03:28:53;;;;;;;8.48;5.30;;;22.50;55.90;;;;;;5076724;28;20025;-71
2022/04/27 03:31:20;;;;;;;8.70;5.65;;;22.40;55.90;;;;;;5075422;28;20040;-71
2022/04/27 03:33:49;;;;;;;8.77;5.53;;;22.40;55.80;;;;;;5075897;28;20045;-72
2022/04/27 03:36:17;;;;;;;7.25;5.05;;;22.50;56.00;;;;;;5075638;28;20045;-72
2022/04/27 03:38:43;;;;;;;8.65;4.80;;;22.40;55.90;;;;;;5075117;28;20047;-71
2022/04/27 03:41:10;;;;;;;6.40;5.03;;;22.40;55.90;;;;;;5075453;28;20044;-71
2022/04/27 03:43:41;;;;;;;6.90;5.25;;;22.50;55.90;;;;;;5075692;28;20037;-71
2022/04/27 03:46:07;;;;;;;6.03;4.47;;;22.50;55.80;;;;;;5076270;28;20037;-72
2022/04/27 03:48:37;;;;;;;6.07;5.15;;;22.40;55.80;;;;;;5075810;28;20041;-71
2022/04/27 03:51:04;;;;;;;7.45;5.20;;;22.50;55.90;;;;;;5076209;28;20053;-71
2022/04/27 03:53:30;;;;;;;7.82;5.72;;;22.60;55.80;;;;;;5075405;28;20069;-72
2022/04/27 03:55:57;;;;;;;8.90;5.63;;;22.50;55.80;;;;;;5075831;28;20049;-71
2022/04/27 03:58:23;;;;;;;7.13;5.43;;;22.60;55.70;;;;;;5079975;28;20041;-72
2022/04/27 04:00:50;;;;;;;6.10;4.80;;;22.60;55.60;;;;;;5079354;28;20029;-71
2022/04/27 04:03:20;;;;;;;7.68;4.88;;;22.50;55.70;;;;;;5079056;28;20048;-71
2022/04/27 04:05:46;;;;;;;5.53;4.63;;;22.70;55.50;;;;;;5078939;28;20100;-71
2022/04/27 04:08:13;;;;;;;8.00;4.60;;;22.80;55.20;;;;;;5079163;28;20041;-71
2022/04/27 04:10:39;;;;;;;6.00;4.55;;;22.90;55.00;;;;;;5079114;28;20037;-72
2022/04/27 04:13:05;;;;;;;6.75;4.85;;;23.00;54.70;;;;;;5078851;28;20048;-73
2022/04/27 04:15:47;;;;;;;4.30;3.17;;;23.00;54.60;;;;;;5079679;28;20077;-72
2022/04/27 04:18:32;;;;;;;5.00;3.95;;;23.10;54.40;;;;;;5079384;28;20036;-68
2022/04/27 04:21:21;;;;;;;7.25;3.47;;;23.10;56.30;;;;;;5076337;28;20096;-68
2022/04/27 04:24:08;;;;;;;10.07;4.63;;;23.30;58.50;;;;;;5078912;28;20033;-68
2022/04/27 04:29:26;;;;;;;11.05;6.07;;;23.70;60.40;;;;;;5078429;28;20063;-70
2022/04/27 04:31:53;;;;;;;7.22;5.50;;;23.70;55.60;;;;;;5079205;28;20045;-69
2022/04/27 04:34:40;;;;;;;10.45;5.45;;;23.80;54.00;;;;;;5078133;28;20060;-70
2022/04/27 04:37:09;;;;;;;8.70;6.55;;;23.60;52.40;;;;;;5078411;28;20062;-68
2022/04/27 04:39:35;;;;;;;8.50;5.13;;;23.50;53.00;;;;;;5078810;28;20048;-69
2022/04/27 04:42:01;;;;;;;6.70;4.85;;;23.60;53.00;;;;;;5078323;28;20032;-70
2022/04/27 04:44:27;;;;;;;6.35;4.68;;;23.50;52.70;;;;;;5078219;28;20040;-70
2022/04/27 04:47:12;;;;;;;10.25;4.80;;;23.60;52.50;;;;;;5079159;28;20056;-70
2022/04/27 04:49:59;;;;;;;8.70;5.72;;;23.60;52.10;;;;;;5067876;28;20710;-69
2022/04/27 04:52:45;;;;;;;8.70;4.68;;;23.60;51.70;;;;;;5079016;28;20056;-70
2022/04/27 04:55:15;;;;;;;8.55;4.97;;;23.70;51.50;;;;;;5078549;28;20039;-70
2022/04/27 04:58:10;;;;;;;10.25;5.78;;;23.60;51.30;;;;;;5078346;28;20052;-71
2022/04/27 05:01:03;;;;;;;2.00;1.83;;;23.70;50.90;;;;;;5078416;28;20045;-71
2022/04/27 05:03:48;;;;;;;0.93;0.93;;;23.60;50.40;;;;;;5078613;28;20067;-70
2022/04/27 05:06:40;;;;;;;4.65;3.78;;;23.60;49.60;;;;;;5077670;28;20045;-70
2022/04/27 05:09:32;;;;;;;6.18;3.35;;;23.60;49.10;;;;;;5076664;28;20032;-70
2022/04/27 05:12:19;;;;;;;6.43;1.33;;;23.60;47.90;;;;;;5078057;28;20104;-69
2022/04/27 05:15:06;;;;;;;5.55;4.10;;;23.60;48.70;;;;;;5077784;28;20089;-70
2022/04/27 05:17:40;;;;;;;15.98;2.88;;;23.50;48.40;;;;;;5077811;28;20037;-69
2022/04/27 05:20:19;;;;;;;5.07;3.75;;;23.50;47.60;;;;;;5077447;28;20045;-73
2022/04/27 05:23:06;;;;;;;3.10;2.08;;;23.50;47.20;;;;;;5070488;28;20029;-74
2022/04/27 05:25:53;;;;;;;4.82;2.92;;;23.50;51.50;;;;;;5074599;28;20037;-74
2022/04/27 05:31:59;;;;;;;2.72;2.45;;;23.50;53.30;;;;;;5075910;28;20049;-73
2022/04/27 05:34:45;;;;;;;5.65;2.25;;;23.60;54.20;;;;;;5076784;28;20040;-72
2022/04/27 05:37:50;;;;;;;6.55;3.00;;;23.60;55.20;;;;;;5075704;28;20037;-73
2022/04/27 05:40:39;;;;;;;2.90;2.60;;;23.70;56.40;;;;;;5075307;28;20052;-73
2022/04/27 05:43:11;;;;;;;7.57;5.00;;;23.70;57.20;;;;;;5077070;28;20048;-73
2022/04/27 05:46:03;;;;;;;5.70;2.88;;;23.70;54.70;;;;;;5076778;28;20096;-72
2022/04/27 05:48:29;;;;;;;8.45;4.63;;;23.80;54.10;;;;;;5076958;28;20104;-75
2022/04/27 05:51:18;;;;;;;7.40;6.30;;;23.80;51.50;;;;;;5075050;28;20049;-73
2022/04/27 05:54:14;;;;;;;13.63;6.75;;;23.80;53.80;;;;;;5076968;28;20140;-73
2022/04/27 05:56:55;;;;;;;8.63;6.38;;;23.80;51.50;;;;;;5076821;28;20036;-74
2022/04/27 05:59:38;;;;;;;;;;;23.70;52.50;;;;;;5077385;28;20044;-75
2022/04/27 06:02:28;;;;;;;10.52;6.50;;;23.60;53.30;;;;;;5057365;28;19909;-75
2022/04/27 06:04:55;;;;;;;8.88;6.03;;;23.60;53.40;;;;;;5079885;28;20044;-77
2022/04/27 06:07:21;;;;;;;9.93;7.07;;;23.40;53.10;;;;;;5097013;28;20040;-71
2022/04/27 06:09:47;;;;;;;7.03;5.70;;;23.40;53.90;;;;;;5096959;28;20393;-71
2022/04/27 06:12:34;;;;;;;6.88;5.90;;;23.40;54.30;;;;;;5081958;28;20052;-71
2022/04/27 06:15:19;;;;;;;11.23;6.55;;;23.30;54.20;;;;;;5097358;28;20047;-72
2022/04/27 06:17:46;;;;;;;9.60;6.78;;;23.20;54.90;;;;;;5096821;28;20032;-72
2022/04/27 06:20:15;;;;;;;8.60;6.82;;;23.20;55.10;;;;;;5095548;28;20028;-73
2022/04/27 06:22:41;;;;;;;10.27;7.53;;;23.20;55.30;;;;;;5096742;28;20100;-72
2022/04/27 06:25:08;;;;;;;8.32;6.65;;;23.20;55.30;;;;;;5096326;28;20037;-71
2022/04/27 06:27:45;;;;;;;11.40;6.78;;;23.30;55.70;;;;;;5096197;28;20033;-72
2022/04/27 06:30:12;;;;;;;11.18;7.07;;;23.20;56.00;;;;;;5096476;28;20040;-71
2022/04/27 06:32:39;;;;;;;14.27;8.40;;;23.10;56.20;;;;;;5096813;28;20048;-70
2022/04/27 06:35:15;;;;;;;11.35;6.45;;;23.20;56.30;;;;;;5096097;28;20043;-70
2022/04/27 06:37:45;;;;;;;11.57;6.70;;;23.20;56.60;;;;;;5096347;28;20044;-71
2022/04/27 06:40:12;;;;;;;9.55;5.93;;;23.30;56.50;;;;;;5095978;28;20086;-73
2022/04/27 06:42:43;;;;;;;7.82;5.20;;;23.30;56.60;;;;;;5079450;28;20043;-72
2022/04/27 06:45:28;;;;;;;5.47;4.70;;;23.40;56.70;;;;;;5096731;28;20036;-71
2022/04/27 06:48:14;;;;;;;5.45;4.75;;;23.30;56.60;;;;;;5075205;28;20096;-71
2022/04/27 06:50:59;;;;;;;7.07;5.40;;;23.30;56.80;;;;;;5096863;28;20040;-70
2022/04/27 06:53:45;;;;;;;4.97;4.20;;;23.40;57.00;;;;;;5080807;28;20074;-70
2022/04/27 06:56:29;;;;;;;5.78;4.80;;;23.30;57.20;;;;;;5075925;28;20041;-70
2022/04/27 06:59:14;;;;;;;5.15;3.95;;;23.30;56.90;;;;;;5076108;28;20108;-71
2022/04/27 07:01:43;;;;;;;6.13;3.83;;;23.30;56.80;;;;;;5076294;28;20093;-69
2022/04/27 07:04:11;;;;;;;6.18;4.32;;;23.40;57.00;;;;;;5076552;28;20125;-69
2022/04/27 07:06:38;;;;;;;4.40;3.67;;;23.30;56.90;;;;;;5075514;28;20037;-70
2022/04/27 07:09:07;;;;;;;7.57;4.70;;;23.30;56.90;;;;;;5076240;28;20041;-70
2022/04/27 07:11:34;;;;;;;7.30;4.88;;;23.30;57.30;;;;;;5079193;28;20044;-70
2022/04/27 07:14:00;;;;;;;4.65;3.88;;;23.30;57.40;;;;;;5096356;28;20075;-71
2022/04/27 07:16:26;;;;;;;5.65;4.82;;;23.20;57.40;;;;;;5095921;28;20032;-70
2022/04/27 07:18:53;;;;;;;7.18;5.03;;;23.30;57.60;;;;;;5093447;28;20051;-70
2022/04/27 07:21:20;;;;;;;6.00;4.30;;;23.40;57.60;;;;;;5075209;28;20040;-71
2022/04/27 07:23:46;;;;;;;4.97;3.33;;;23.40;57.50;;;;;;5075750;28;20048;-74
2022/04/27 07:26:13;;;;;;;5.20;3.80;;;23.40;57.30;;;;;;5075963;28;20040;-75
2022/04/27 07:28:41;;;;;;;6.00;4.85;;;23.50;57.00;;;;;;5075643;28;20105;-69
2022/04/27 07:31:07;;;;;;;6.05;3.55;;;23.50;56.20;;;;;;5074991;28;20043;-62
2022/04/27 07:33:34;;;;;;;9.00;3.42;;;23.60;55.20;;;;;;5076124;28;20049;-63
2022/04/27 07:36:01;;;;;;;3.70;3.13;;;23.60;54.30;;;;;;5075822;28;20044;-63
2022/04/27 07:38:27;;;;;;;5.07;3.75;;;23.60;51.80;;;;;;5075779;28;20071;-71
2022/04/27 07:40:53;;;;;;;3.50;2.75;;;23.70;53.10;;;;;;5075551;28;20072;-75
2022/04/27 07:43:19;;;;;;;4.57;3.47;;;23.70;52.60;;;;;;5075111;28;20052;-75
2022/04/27 07:45:46;;;;;;;4.70;3.53;;;23.60;52.30;;;;;;5075638;28;20041;-76
2022/04/27 07:48:12;;;;;;;6.32;3.95;;;23.60;51.90;;;;;;5075664;28;20116;-71
2022/04/27 07:50:39;;;;;;;5.60;4.35;;;23.70;50.90;;;;;;5074922;28;20053;-69
2022/04/27 07:53:05;;;;;;;5.53;3.47;;;23.60;49.10;;;;;;5075598;28;20071;-69
2022/04/27 07:55:31;;;;;;;5.53;3.63;;;23.70;52.00;;;;;;5074826;28;20039;-68
2022/04/27 07:57:57;;;;;;;5.57;4.05;;;23.60;51.40;;;;;;5075451;28;20045;-68
2022/04/27 08:00:24;;;;;;;7.30;4.03;;;23.60;51.10;;;;;;5075469;28;20072;-69
2022/04/27 08:02:50;;;;;;;4.30;3.42;;;23.60;51.00;;;;;;5075648;28;20037;-71
2022/04/27 08:05:16;;;;;;;4.45;3.13;;;23.70;51.50;;;;;;5075070;28;20029;-69
2022/04/27 08:07:45;;;;;;;5.28;3.65;;;23.70;51.70;;;;;;5075515;28;20052;-67
2022/04/27 08:10:14;;;;;;;5.40;3.67;;;23.60;51.90;;;;;;5075589;28;20045;-68
2022/04/27 08:12:43;;;;;;;5.45;2.85;;;23.60;51.80;;;;;;5087639;28;20063;-69
2022/04/27 08:15:10;;;;;;;5.55;3.65;;;23.60;52.00;;;;;;5094654;28;20056;-66
2022/04/27 08:17:59;;;;;;;4.80;3.08;;;23.80;52.00;;;;;;5095801;28;20055;-66
2022/04/27 08:23:31;;;;;;;;;;;23.80;52.10;;;;;;5095829;28;20136;-66
2022/04/27 08:26:03;;;;;;;4.93;3.40;;;23.70;52.50;;;;;;5094946;28;19930;-67
2022/04/27 08:28:29;;;;;;;4.03;2.90;;;23.70;52.30;;;;;;5095677;28;20120;-65
2022/04/27 08:30:56;;;;;;;2.72;2.20;;;23.60;50.70;;;;;;5077028;28;20070;-66
2022/04/27 08:33:23;;;;;;;2.53;2.33;;;23.70;50.40;;;;;;5073392;28;20041;-67
2022/04/27 08:35:51;;;;;;;2.97;2.47;;;23.70;50.30;;;;;;5074362;28;20052;-67
2022/04/27 08:38:17;;;;;;;4.82;2.42;;;23.80;50.00;;;;;;5074306;28;20093;-66
2022/04/27 08:40:45;;;;;;;3.53;2.53;;;23.70;49.80;;;;;;5074256;28;20060;-67
2022/04/27 08:43:13;;;;;;;4.18;2.70;;;23.60;49.20;;;;;;5075581;28;20029;-67
2022/04/27 08:45:42;;;;;;;2.47;2.17;;;23.80;49.10;;;;;;5077536;28;20033;-67
2022/04/27 08:48:09;;;;;;;2.55;1.80;;;23.80;49.20;;;;;;5077491;28;20041;-68
2022/04/27 08:50:36;;;;;;;2.75;2.55;;;23.80;49.30;;;;;;5077985;28;20041;-67
2022/04/27 08:53:02;;;;;;;4.20;2.35;;;23.70;50.50;;;;;;5078273;28;20049;-67
2022/04/27 08:55:29;;;;;;;8.55;4.60;;;24.10;52.70;;;;;;5077385;28;20029;-67
2022/04/27 08:58:06;;;;;;;7.35;3.00;;;24.40;48.80;;;;;;5076782;28;20068;-66
2022/04/27 09:00:32;;;;;;;3.08;2.60;;;24.40;46.30;;;;;;5077231;28;20052;-67
2022/04/27 09:03:25;;;;;;;3.10;2.67;;;24.40;45.50;;;;;;5077636;28;20066;-68
2022/04/27 09:05:58;;;;;;;4.65;2.63;;;24.30;46.00;;;;;;5077773;28;20063;-67
2022/04/27 09:08:27;;;;;;;4.57;1.80;;;24.30;46.40;;;;;;5077668;28;20071;-67
2022/04/27 09:11:22;;;;;;;1.27;1.17;;;24.30;46.00;;;;;;5078479;28;20044;-67
2022/04/27 09:13:54;;;;;;;3.40;2.22;;;24.20;46.30;;;;;;5078475;28;20123;-68
2022/04/27 09:20:46;;;;;;;2.92;2.00;;;24.20;46.00;;;;;;5078330;28;20048;-67
2022/04/27 09:22:05;;;;;;;1.25;1.15;;;24.30;45.60;;;;;;5077706;28;20057;-67
2022/04/27 09:24:52;;;;;;;15.20;3.55;;;24.30;45.50;;;;;;5077931;28;20041;-68
2022/04/27 09:27:20;;;;;;;3.38;3.08;;;24.40;47.20;;;;;;5077947;28;20037;-68
2022/04/27 09:30:02;;;;;;;2.95;1.88;;;24.60;49.20;;;;;;5076702;28;20044;-67
2022/04/27 09:32:29;;;;;;;3.92;1.50;;;24.70;47.90;;;;;;5076804;28;20048;-67
2022/04/27 09:35:00;;;;;;;2.40;2.20;;;25.00;47.70;;;;;;5077264;28;20048;-69
2022/04/27 09:37:27;;;;;;;3.45;2.55;;;25.20;46.90;;;;;;5077432;28;20049;-68
2022/04/27 09:40:11;;;;;;;2.67;2.03;;;25.20;46.10;;;;;;5077039;28;20056;-68
2022/04/27 09:42:46;;;;;;;3.10;2.75;;;25.10;46.20;;;;;;5077163;28;20108;-69
2022/04/27 09:45:18;;;;;;;5.35;2.58;;;25.00;45.10;;;;;;5077984;28;20048;-68
2022/04/27 09:47:48;;;;;;;3.95;2.92;;;25.00;45.60;;;;;;5077528;28;20036;-68
2022/04/27 09:50:16;;;;;;;3.30;2.80;;;25.30;53.80;;;;;;5057619;28;20037;-68
2022/04/27 09:52:50;;;;;;;3.10;2.55;;;25.30;43.90;;;;;;5062349;28;20045;-70
2022/04/27 09:55:16;;;;;;;3.80;2.25;;;25.30;41.60;;;;;;5077348;28;20047;-69
2022/04/27 09:57:42;;;;;;;3.10;2.33;;;25.10;41.10;;;;;;5076550;28;20037;-70
2022/04/27 10:00:12;;;;;;;3.85;3.10;;;25.00;41.60;;;;;;5077305;28;20056;-71
2022/04/27 10:02:43;;;;;;;5.00;2.78;;;25.20;52.00;;;;;;5077705;28;20025;-68
2022/04/27 10:05:10;;;;;;;6.00;3.53;;;25.80;57.50;;;;;;5077375;28;20049;-69
2022/04/27 10:07:36;;;;;;;7.00;2.92;;;26.50;55.30;;;;;;5077418;28;20037;-69
2022/04/27 10:10:04;;;;;;;6.50;2.97;;;27.00;45.20;;;;;;5077215;28;20056;-68
2022/04/27 10:12:38;;;;;;;3.40;2.72;;;26.70;42.50;;;;;;5076406;28;20096;-68
2022/04/27 10:15:08;;;;;;;3.90;2.20;;;26.40;41.90;;;;;;5076959;28;20052;-67
2022/04/27 10:17:34;;;;;;;3.17;2.47;;;26.10;39.80;;;;;;5076947;28;20131;-68
2022/04/27 10:20:01;;;;;;;2.38;2.17;;;25.90;46.90;;;;;;5076368;28;20051;-69
2022/04/27 10:22:32;;;;;;;3.25;2.42;;;26.00;48.60;;;;;;5077024;28;20067;-70
2022/04/27 10:25:09;;;;;;;2.83;2.10;;;25.90;49.10;;;;;;5076747;28;20060;-70
2022/04/27 10:27:40;;;;;;;5.53;2.67;;;25.80;49.30;;;;;;5077070;28;20044;-69
2022/04/27 10:30:10;;;;;;;2.63;2.03;;;25.70;49.50;;;;;;5076421;28;20379;-70
2022/04/27 10:32:46;;;;;;;2.53;1.95;;;25.70;49.60;;;;;;5076598;28;20068;-70
2022/04/27 10:35:19;;;;;;;3.15;2.65;;;25.60;52.00;;;;;;5076360;28;20056;-70
2022/04/27 10:37:57;;;;;;;;;;;25.60;50.90;;;;;;5076270;28;20066;-69
2022/04/27 10:40:31;;;;;;;3.35;2.53;;;25.70;51.20;;;;;;5076551;28;19923;-70
2022/04/27 10:43:06;;;;;;;2.58;2.33;;;25.50;50.60;;;;;;5076737;28;20027;-69
2022/04/27 10:45:35;;;;;;;3.85;2.85;;;25.50;50.50;;;;;;5076378;28;20065;-69
2022/04/27 10:48:06;;;;;;;2.85;2.55;;;25.50;50.50;;;;;;5076584;28;20044;-69
2022/04/27 10:50:36;;;;;;;3.50;2.70;;;25.40;50.00;;;;;;5075951;28;20060;-69
2022/04/27 10:53:23;;;;;;;5.10;2.65;;;25.30;50.50;;;;;;5076035;28;20109;-69
2022/04/27 10:55:51;;;;;;;2.78;2.35;;;25.30;47.70;;;;;;5076649;28;20049;-69
2022/04/27 10:58:18;;;;;;;2.97;2.45;;;25.30;51.60;;;;;;5076374;28;20043;-69
2022/04/27 11:01:02;;;;;;;3.30;2.30;;;25.10;52.00;;;;;;5075826;28;20048;-69
2022/04/27 11:03:35;;;;;;;3.42;2.50;;;25.00;52.20;;;;;;5076452;28;20044;-69
2022/04/27 11:06:04;;;;;;;3.75;2.72;;;25.00;52.20;;;;;;5075073;28;20033;-69
2022/04/27 11:08:36;;;;;;;2.40;2.17;;;25.00;52.10;;;;;;5075124;28;20036;-69
2022/04/27 11:11:08;;;;;;;2.42;2.25;;;25.00;52.60;;;;;;5076010;28;20037;-70
2022/04/27 11:13:35;;;;;;;2.90;2.20;;;25.00;52.80;;;;;;5075928;28;20052;-70
2022/04/27 11:16:12;;;;;;;4.53;2.92;;;25.00;52.80;;;;;;5075799;28;20104;-69
2022/04/27 11:18:56;;;;;;;4.32;2.20;;;24.90;52.90;;;;;;5076092;28;20033;-71
2022/04/27 11:21:28;;;;;;;4.03;2.20;;;24.90;52.90;;;;;;5075795;28;20044;-70
2022/04/27 11:23:55;;;;;;;7.10;2.33;;;25.00;52.90;;;;;;5073908;28;20037;-69
2022/04/27 11:26:22;;;;;;;2.58;2.35;;;24.90;52.60;;;;;;5075147;28;20048;-70
2022/04/27 11:28:48;;;;;;;3.33;2.50;;;25.00;53.20;;;;;;5075606;28;20029;-69
2022/04/27 11:31:16;;;;;;;3.35;2.50;;;24.90;53.10;;;;;;5075851;28;20048;-69
2022/04/27 11:33:42;;;;;;;4.47;2.53;;;24.90;52.40;;;;;;5075282;28;20041;-69
2022/04/27 11:36:25;;;;;;;5.72;2.50;;;24.70;53.00;;;;;;5075459;28;20077;-69
2022/04/27 11:38:52;;;;;;;3.47;2.45;;;24.80;52.00;;;;;;5075238;28;20037;-69
2022/04/27 11:41:20;;;;;;;4.47;2.53;;;24.80;53.40;;;;;;5075168;28;20055;-69
2022/04/27 11:43:51;;;;;;;2.33;1.92;;;24.80;53.10;;;;;;5075713;28;20071;-69
2022/04/27 11:46:18;;;;;;;3.20;2.60;;;24.80;53.40;;;;;;5075555;28;20044;-69
2022/04/27 11:48:48;;;;;;;4.15;2.70;;;24.60;52.20;;;;;;5074813;28;20041;-69
2022/04/27 11:51:14;;;;;;;3.22;2.35;;;24.60;53.30;;;;;;5074924;28;20056;-69
2022/04/27 11:53:49;;;;;;;4.03;3.42;;;24.60;56.40;;;;;;5075549;28;20037;-68
2022/04/27 11:56:19;;;;;;;3.70;2.72;;;24.70;51.40;;;;;;5073987;28;20055;-68
2022/04/27 11:58:46;;;;;;;3.10;2.80;;;24.50;47.80;;;;;;5074431;28;20045;-68
2022/04/27 12:01:20;;;;;;;4.30;2.90;;;24.50;49.00;;;;;;5074846;28;20041;-68
2022/04/27 12:03:49;;;;;;;3.22;2.88;;;24.50;54.00;;;;;;5074965;28;20060;-69
2022/04/27 12:06:19;;;;;;;3.08;2.78;;;24.60;53.90;;;;;;5075443;28;20040;-68
2022/04/27 12:08:46;;;;;;;3.53;2.33;;;24.50;51.90;;;;;;5074264;28;20029;-68
2022/04/27 12:11:23;;;;;;;3.55;2.70;;;24.50;51.10;;;;;;5073981;28;20061;-68
2022/04/27 12:13:51;;;;;;;2.83;2.63;;;24.60;52.70;;;;;;5074674;28;20033;-68
2022/04/27 12:16:18;;;;;;;2.78;2.28;;;24.50;52.90;;;;;;5074927;28;20049;-68
2022/04/27 12:18:51;;;;;;;3.13;2.47;;;24.50;49.10;;;;;;5078156;28;20067;-68
2022/04/27 12:21:26;;;;;;;2.65;2.42;;;24.60;51.90;;;;;;5079331;28;20044;-68
2022/04/27 12:23:56;;;;;;;2.80;2.38;;;24.60;50.90;;;;;;5079753;28;20033;-69
2022/04/27 12:26:26;;;;;;;2.33;2.13;;;24.50;52.20;;;;;;5078744;28;20029;-68
2022/04/27 12:28:52;;;;;;;2.65;2.42;;;24.50;50.40;;;;;;5076917;28;20035;-68
2022/04/27 12:31:21;;;;;;;5.03;2.13;;;24.50;47.80;;;;;;5078948;28;20089;-68
2022/04/27 12:33:51;;;;;;;2.92;2.40;;;24.50;51.70;;;;;;5079234;28;20123;-68
2022/04/27 12:39:23;;;;;;;3.55;2.67;;;24.30;52.00;;;;;;5078944;28;20055;-68
2022/04/27 12:41:52;;;;;;;2.95;2.30;;;24.40;50.30;;;;;;5079058;28;20041;-68
2022/04/27 12:44:35;;;;;;;2.95;2.15;;;24.30;52.80;;;;;;5078997;28;20045;-68
2022/04/27 12:47:04;;;;;;;3.97;1.83;;;24.40;52.40;;;;;;5078856;28;20051;-68
2022/04/27 12:49:38;;;;;;;2.55;2.35;;;24.30;52.60;;;;;;5079152;28;20091;-68
2022/04/27 12:52:18;;;;;;;2.85;2.20;;;24.40;53.30;;;;;;5078768;28;20053;-69
2022/04/27 12:54:46;;;;;;;4.38;2.63;;;24.30;53.50;;;;;;5078959;28;20056;-68
2022/04/27 12:57:14;;;;;;;3.65;2.65;;;24.40;49.60;;;;;;5078712;28;20040;-68
2022/04/27 13:00:00;;;;;;;4.28;3.45;;;24.40;53.20;;;;;;5078796;28;20074;-68
2022/04/27 13:02:27;;;;;;;4.03;2.92;;;24.40;52.90;;;;;;5078946;28;20105;-68
2022/04/27 13:04:54;;;;;;;8.90;2.97;;;24.50;51.10;;;;;;5061284;28;20055;-68
2022/04/27 13:07:20;;;;;;;3.85;2.75;;;24.30;50.00;;;;;;5078432;28;20037;-68
2022/04/27 13:12:33;;;;;;;4.10;2.90;;;24.30;53.10;;;;;;5078662;28;20060;-68
2022/04/27 13:15:01;;;;;;;5.47;3.05;;;24.30;52.10;;;;;;5078386;28;20065;-68
2022/04/27 13:17:27;;;;;;;3.17;2.55;;;24.40;51.80;;;;;;5078446;28;20071;-68
2022/04/27 13:19:53;;;;;;;4.35;3.05;;;24.20;53.90;;;;;;5077568;28;20033;-69
2022/04/27 13:22:19;;;;;;;4.43;2.92;;;24.30;54.30;;;;;;5078351;28;20048;-69
2022/04/27 13:24:45;;;;;;;3.90;2.92;;;24.40;54.60;;;;;;5078239;28;20041;-68
2022/04/27 13:27:12;;;;;;;4.43;3.47;;;24.30;48.50;;;;;;5077786;28;20056;-69
2022/04/27 13:29:38;;;;;;;3.97;3.00;;;24.10;53.80;;;;;;5076892;28;20048;-70
2022/04/27 13:32:04;;;;;;;3.45;2.95;;;24.30;54.20;;;;;;5077418;28;20045;-69